Jessica S. Settoon — WDD9545 — position and weather

sailwx.info

Track history (hours):
 
Tides and Currents Weather Stations Pressure Air Temp Water Temp Dewpoint Dewpoint Depression Visibility Wind Speed Wind Dir Waves Ship Positions

Jessica S. Settoon

Owner: Settoon Towing LLC, Houma, LA. More information available from US FCC via Universal Licensing System and Coast Guard Vessel Documentation Center.

Last reported at 2014-Dec-21 18:33 UTC. Time now 2014-Dec-21 18:44 UTC.
Position N 29°46' W 091°11'.

Length 17 m; draft 3 m.

Type: Tug. MMSI: 367312940.

Date/timePositionNaut miles runAvg speedWind from/ knotsBaromVisibWave heightAir tempDewpointWater temp
2014-Dec-21 18:33N 29°46' W 091°11'2 2.3
2014-Dec-21 17:33N 29°44' W 091°11'3 2.8
2014-Dec-21 16:33N 29°41' W 091°10'5 5.4
2014-Dec-21 15:33N 29°38' W 091°05'5 5.5
2014-Dec-21 14:33N 29°37' W 090°59'2 0.1
2014-Dec-20 08:32N 29°38' W 090°56'0 0.0
2014-Dec-20 06:15N 29°38' W 090°56'0 0.1
2014-Dec-20 03:08N 29°37' W 090°56'2 3.8
2014-Dec-20 02:33N 29°37' W 090°59'6 6.4
2014-Dec-20 01:33N 29°38' W 091°06'5 5.1
2014-Dec-20 00:33N 29°41' W 091°11'3 2.6
2014-Dec-19 23:33N 29°43' W 091°12'5 4.8
2014-Dec-19 22:33N 29°48' W 091°11'3 3.0
2014-Dec-19 21:33N 29°48' W 091°14'3 3.4
2014-Dec-19 20:33N 29°47' W 091°18'1 0.7
2014-Dec-19 19:33N 29°47' W 091°19'0 0.0
2014-Dec-19 18:33N 29°47' W 091°19'0 0.0
2014-Dec-19 17:33N 29°47' W 091°19'0 0.0
2014-Dec-19 16:33N 29°47' W 091°19'0 0.0
2014-Dec-19 15:33N 29°47' W 091°19'0 0.0
2014-Dec-19 14:33N 29°47' W 091°19'0 0.0
2014-Dec-19 13:33N 29°47' W 091°19'0 0.0
2014-Dec-19 12:33N 29°47' W 091°19'0 0.0
2014-Dec-19 11:33N 29°47' W 091°19'0 0.0
2014-Dec-19 10:33N 29°47' W 091°19'0 0.0
2014-Dec-19 09:33N 29°47' W 091°19'0 0.0
2014-Dec-19 08:33N 29°47' W 091°19'0 0.0
2014-Dec-19 07:33N 29°47' W 091°19'0 0.0
2014-Dec-19 06:33N 29°47' W 091°19'0 0.0
2014-Dec-19 05:33N 29°47' W 091°19'0 0.0
2014-Dec-19 04:33N 29°47' W 091°19'0 0.0
2014-Dec-19 03:33N 29°47' W 091°19'0 0.0
2014-Dec-19 02:33N 29°47' W 091°19'0 0.0
2014-Dec-19 01:33N 29°47' W 091°19'0 0.0
2014-Dec-19 00:33N 29°47' W 091°19'0 0.0
2014-Dec-18 23:33N 29°47' W 091°19'0 0.0
2014-Dec-18 22:33N 29°47' W 091°19'1 0.6
2014-Dec-18 21:33N 29°47' W 091°18'3 3.5
2014-Dec-18 20:33N 29°48' W 091°14'3 3.1
2014-Dec-18 19:32N 29°48' W 091°11'2 2.2
2014-Dec-18 18:33N 29°46' W 091°11'3 2.9
2014-Dec-18 17:33N 29°43' W 091°13'3 3.4
2014-Dec-18 16:33N 29°41' W 091°10'4 4.3
2014-Dec-18 15:33N 29°38' W 091°06'7 6.0
2014-Dec-18 14:28N 29°37' W 090°59'2 1.0
2014-Dec-18 12:12N 29°37' W 090°56'0 0.0
2014-Dec-18 11:21N 29°37' W 090°56'0 0.0
2014-Dec-17 15:29N 29°38' W 090°57'1 0.0
2014-Dec-17 02:23N 29°38' W 090°56'3 3.5
2014-Dec-17 01:32N 29°37' W 090°59'6 6.4
2014-Dec-17 00:33N 29°39' W 091°06'5 5.1
2014-Dec-16 23:33N 29°41' W 091°11'3 2.7
2014-Dec-16 22:33N 29°44' W 091°11'5 4.8
2014-Dec-16 21:32N 29°49' W 091°11'3 2.8
2014-Dec-16 20:28N 29°48' W 091°15'4 0.9
2014-Dec-16 16:27N 29°47' W 091°19'0 0.0
2014-Dec-16 15:33N 29°47' W 091°19'0 0.0
2014-Dec-16 14:33N 29°47' W 091°19'0 0.0
2014-Dec-16 13:33N 29°47' W 091°19'0 0.0
2014-Dec-16 12:33N 29°47' W 091°19'0 0.0
2014-Dec-16 11:33N 29°47' W 091°19'0 0.0
2014-Dec-16 10:33N 29°47' W 091°19'0 0.0
2014-Dec-16 09:31N 29°47' W 091°19'0 0.0
2014-Dec-16 08:33N 29°47' W 091°19'0 0.0
2014-Dec-16 07:33N 29°47' W 091°19'0 0.0
2014-Dec-16 06:33N 29°47' W 091°19'0 0.0
2014-Dec-16 05:33N 29°47' W 091°19'0 0.0
2014-Dec-16 04:33N 29°47' W 091°19'0 0.0
2014-Dec-16 03:32N 29°47' W 091°19'0 0.0
2014-Dec-16 02:31N 29°47' W 091°19'0 0.0
2014-Dec-16 01:29N 29°47' W 091°19'0 0.2
2014-Dec-16 00:16N 29°48' W 091°18'2 3.1
2014-Dec-15 23:29N 29°48' W 091°16'2 2.4
2014-Dec-15 22:30N 29°49' W 091°13'3 3.3
2014-Dec-15 21:32N 29°46' W 091°11'5 5.3
2014-Dec-15 20:33N 29°41' W 091°13'2 2.4
2014-Dec-15 19:33N 29°41' W 091°10'3 3.4
2014-Dec-15 18:33N 29°39' W 091°07'1 1.4
2014-Dec-15 17:33N 29°40' W 091°06'1 0.8
2014-Dec-15 16:33N 29°39' W 091°06'7 6.1
2014-Dec-15 15:25N 29°37' W 090°59'3 1.9
2014-Dec-15 14:07N 29°37' W 090°56'0 0.0
2014-Dec-15 13:33N 29°37' W 090°56'0 0.0
2014-Dec-15 12:29N 29°37' W 090°56'0 0.0
2014-Dec-15 11:33N 29°37' W 090°56'0 0.0
2014-Dec-15 10:33N 29°37' W 090°56'0 0.0
2014-Dec-15 09:14N 29°37' W 090°56'0 0.0
2014-Dec-15 08:26N 29°37' W 090°56'0 0.0
2014-Dec-15 07:29N 29°37' W 090°56'0 0.0
2014-Dec-15 04:33N 29°37' W 090°56'0 0.0
2014-Dec-15 03:29N 29°37' W 090°56'0 0.0
2014-Dec-15 02:25N 29°37' W 090°56'0 0.0
2014-Dec-15 01:28N 29°37' W 090°56'0 0.0
2014-Dec-15 00:32N 29°37' W 090°56'0 0.0
2014-Dec-14 23:33N 29°37' W 090°56'0 0.0
2014-Dec-14 22:33N 29°37' W 090°56'0 0.0
2014-Dec-14 21:19N 29°37' W 090°56'0 0.0
2014-Dec-14 20:30N 29°37' W 090°56'0 0.0
2014-Dec-14 19:30N 29°37' W 090°56'0 0.0
2014-Dec-14 18:33N 29°37' W 090°56'0 0.0
2014-Dec-14 17:33N 29°37' W 090°56'0 0.0
2014-Dec-14 16:31N 29°37' W 090°56'0 0.0
2014-Dec-14 15:33N 29°37' W 090°56'0 0.0
2014-Dec-14 14:33N 29°37' W 090°56'0 0.0
2014-Dec-14 13:32N 29°37' W 090°56'0 0.0
2014-Dec-14 12:33N 29°37' W 090°56'0 0.0
2014-Dec-14 11:33N 29°37' W 090°56'0 0.0
2014-Dec-14 10:33N 29°37' W 090°56'0 0.0
2014-Dec-14 09:33N 29°37' W 090°56'0 0.0
2014-Dec-14 08:33N 29°37' W 090°56'0 0.0
2014-Dec-14 07:33N 29°37' W 090°56'0 0.0
2014-Dec-14 06:33N 29°37' W 090°56'0 0.0
2014-Dec-14 05:33N 29°37' W 090°56'7 1.9
2014-Dec-14 02:04N 29°37' W 091°04'3 6.0
2014-Dec-14 01:33N 29°38' W 091°07'5 4.5
2014-Dec-14 00:33N 29°41' W 091°11'3 2.6
2014-Dec-13 23:33N 29°44' W 091°12'3 3.1
2014-Dec-13 22:26N 29°47' W 091°11'3 3.0
2014-Dec-13 21:26N 29°49' W 091°13'2 2.0
2014-Dec-13 20:33N 29°48' W 091°15'3 2.7
2014-Dec-13 19:24N 29°47' W 091°19'0 0.0
2014-Dec-13 18:33N 29°47' W 091°19'0 0.0
2014-Dec-13 17:33N 29°47' W 091°19'0 0.0
2014-Dec-13 16:28N 29°47' W 091°19'0 0.0
2014-Dec-13 15:32N 29°47' W 091°19'0 0.0
2014-Dec-13 14:33N 29°47' W 091°19'0 0.0
2014-Dec-13 13:33N 29°47' W 091°19'0 0.0
2014-Dec-13 12:33N 29°47' W 091°19'0 0.0
2014-Dec-13 11:33N 29°47' W 091°19'0 0.0
2014-Dec-13 10:33N 29°47' W 091°19'0 0.0
2014-Dec-13 09:33N 29°47' W 091°19'0 0.0
2014-Dec-13 08:33N 29°47' W 091°19'0 0.0
2014-Dec-13 07:33N 29°47' W 091°19'0 0.0
2014-Dec-13 06:32N 29°47' W 091°19'0 0.0
2014-Dec-13 05:33N 29°47' W 091°19'0 0.0
2014-Dec-13 04:33N 29°47' W 091°19'0 0.0
2014-Dec-13 03:33N 29°47' W 091°19'0 0.0
2014-Dec-13 02:33N 29°47' W 091°19'0 0.0
2014-Dec-13 01:33N 29°47' W 091°19'0 0.0
2014-Dec-13 00:33N 29°47' W 091°19'0 0.0
2014-Dec-12 23:33N 29°47' W 091°19'0 0.0
2014-Dec-12 22:33N 29°47' W 091°19'0 0.0
2014-Dec-12 21:33N 29°47' W 091°19'0 0.0
2014-Dec-12 20:33N 29°47' W 091°19'0 0.0
2014-Dec-12 19:33N 29°47' W 091°19'0 0.0
2014-Dec-12 18:32N 29°47' W 091°19'0 0.0
2014-Dec-12 17:33N 29°47' W 091°19'0 0.0
2014-Dec-12 16:31N 29°47' W 091°19'0 0.0
2014-Dec-12 15:22N 29°47' W 091°19'0 0.0
2014-Dec-12 14:32N 29°47' W 091°19'0 0.0
2014-Dec-12 13:33N 29°47' W 091°19'0 0.0
2014-Dec-12 12:31N 29°47' W 091°19'0 0.0
2014-Dec-12 11:31N 29°47' W 091°19'0 0.1
2014-Dec-12 08:33N 29°47' W 091°19'3 2.8
2014-Dec-12 07:33N 29°48' W 091°16'2 2.0
2014-Dec-12 06:33N 29°49' W 091°13'3 3.2
2014-Dec-12 05:33N 29°46' W 091°11'3 3.0
2014-Dec-12 04:33N 29°45' W 091°14'0 0.1
2014-Dec-12 03:33N 29°45' W 091°14'2 1.9
2014-Dec-12 02:33N 29°43' W 091°13'3 3.4
2014-Dec-12 01:33N 29°41' W 091°10'0 0.1
2014-Dec-12 00:33N 29°41' W 091°10'0 0.0
2014-Dec-11 23:33N 29°41' W 091°10'0 0.0
2014-Dec-11 22:33N 29°41' W 091°10'0 0.0
2014-Dec-11 21:33N 29°41' W 091°10'0 0.0
2014-Dec-11 20:33N 29°41' W 091°10'0 0.0
2014-Dec-11 19:33N 29°41' W 091°10'0 0.0
2014-Dec-11 18:33N 29°41' W 091°10'  
Track history (hours):
 
Tides and Currents Weather Stations Pressure Air Temp Water Temp Dewpoint Dewpoint Depression Visibility Wind Speed Wind Dir Waves Ship Positions

Jessica S. Settoon

Owner: Settoon Towing LLC, Houma, LA. More information available from US FCC via Universal Licensing System and Coast Guard Vessel Documentation Center.

Last reported at 2014-Dec-21 18:33 UTC. Time now 2014-Dec-21 18:44 UTC.
Position N 29°46' W 091°11'.

Length 17 m; draft 3 m.

Type: Tug. MMSI: 367312940.

Date/timePositionNaut miles runAvg speedWind from/ knotsBaromVisibWave heightAir tempDewpointWater temp
2014-Dec-21 18:33N 29°46' W 091°11'2 2.3
2014-Dec-21 17:33N 29°44' W 091°11'3 2.8
2014-Dec-21 16:33N 29°41' W 091°10'5 5.4
2014-Dec-21 15:33N 29°38' W 091°05'5 5.5
2014-Dec-21 14:33N 29°37' W 090°59'2 0.1
2014-Dec-20 08:32N 29°38' W 090°56'0 0.0
2014-Dec-20 06:15N 29°38' W 090°56'0 0.1
2014-Dec-20 03:08N 29°37' W 090°56'2 3.8
2014-Dec-20 02:33N 29°37' W 090°59'6 6.4
2014-Dec-20 01:33N 29°38' W 091°06'5 5.1
2014-Dec-20 00:33N 29°41' W 091°11'3 2.6
2014-Dec-19 23:33N 29°43' W 091°12'5 4.8
2014-Dec-19 22:33N 29°48' W 091°11'3 3.0
2014-Dec-19 21:33N 29°48' W 091°14'3 3.4
2014-Dec-19 20:33N 29°47' W 091°18'1 0.7
2014-Dec-19 19:33N 29°47' W 091°19'0 0.0
2014-Dec-19 18:33N 29°47' W 091°19'0 0.0
2014-Dec-19 17:33N 29°47' W 091°19'0 0.0
2014-Dec-19 16:33N 29°47' W 091°19'0 0.0
2014-Dec-19 15:33N 29°47' W 091°19'0 0.0
2014-Dec-19 14:33N 29°47' W 091°19'0 0.0
2014-Dec-19 13:33N 29°47' W 091°19'0 0.0
2014-Dec-19 12:33N 29°47' W 091°19'0 0.0
2014-Dec-19 11:33N 29°47' W 091°19'0 0.0
2014-Dec-19 10:33N 29°47' W 091°19'0 0.0
2014-Dec-19 09:33N 29°47' W 091°19'0 0.0
2014-Dec-19 08:33N 29°47' W 091°19'0 0.0
2014-Dec-19 07:33N 29°47' W 091°19'0 0.0
2014-Dec-19 06:33N 29°47' W 091°19'0 0.0
2014-Dec-19 05:33N 29°47' W 091°19'0 0.0
2014-Dec-19 04:33N 29°47' W 091°19'0 0.0
2014-Dec-19 03:33N 29°47' W 091°19'0 0.0
2014-Dec-19 02:33N 29°47' W 091°19'0 0.0
2014-Dec-19 01:33N 29°47' W 091°19'0 0.0
2014-Dec-19 00:33N 29°47' W 091°19'0 0.0
2014-Dec-18 23:33N 29°47' W 091°19'0 0.0
2014-Dec-18 22:33N 29°47' W 091°19'1 0.6
2014-Dec-18 21:33N 29°47' W 091°18'3 3.5
2014-Dec-18 20:33N 29°48' W 091°14'3 3.1
2014-Dec-18 19:32N 29°48' W 091°11'2 2.2
2014-Dec-18 18:33N 29°46' W 091°11'3 2.9
2014-Dec-18 17:33N 29°43' W 091°13'3 3.4
2014-Dec-18 16:33N 29°41' W 091°10'4 4.3
2014-Dec-18 15:33N 29°38' W 091°06'7 6.0
2014-Dec-18 14:28N 29°37' W 090°59'2 1.0
2014-Dec-18 12:12N 29°37' W 090°56'0 0.0
2014-Dec-18 11:21N 29°37' W 090°56'0 0.0
2014-Dec-17 15:29N 29°38' W 090°57'1 0.0
2014-Dec-17 02:23N 29°38' W 090°56'3 3.5
2014-Dec-17 01:32N 29°37' W 090°59'6 6.4
2014-Dec-17 00:33N 29°39' W 091°06'5 5.1
2014-Dec-16 23:33N 29°41' W 091°11'3 2.7
2014-Dec-16 22:33N 29°44' W 091°11'5 4.8
2014-Dec-16 21:32N 29°49' W 091°11'3 2.8
2014-Dec-16 20:28N 29°48' W 091°15'4 0.9
2014-Dec-16 16:27N 29°47' W 091°19'0 0.0
2014-Dec-16 15:33N 29°47' W 091°19'0 0.0
2014-Dec-16 14:33N 29°47' W 091°19'0 0.0
2014-Dec-16 13:33N 29°47' W 091°19'0 0.0
2014-Dec-16 12:33N 29°47' W 091°19'0 0.0
2014-Dec-16 11:33N 29°47' W 091°19'0 0.0
2014-Dec-16 10:33N 29°47' W 091°19'0 0.0
2014-Dec-16 09:31N 29°47' W 091°19'0 0.0
2014-Dec-16 08:33N 29°47' W 091°19'0 0.0
2014-Dec-16 07:33N 29°47' W 091°19'0 0.0
2014-Dec-16 06:33N 29°47' W 091°19'0 0.0
2014-Dec-16 05:33N 29°47' W 091°19'0 0.0
2014-Dec-16 04:33N 29°47' W 091°19'0 0.0
2014-Dec-16 03:32N 29°47' W 091°19'0 0.0
2014-Dec-16 02:31N 29°47' W 091°19'0 0.0
2014-Dec-16 01:29N 29°47' W 091°19'0 0.2
2014-Dec-16 00:16N 29°48' W 091°18'2 3.1
2014-Dec-15 23:29N 29°48' W 091°16'2 2.4
2014-Dec-15 22:30N 29°49' W 091°13'3 3.3
2014-Dec-15 21:32N 29°46' W 091°11'5 5.3
2014-Dec-15 20:33N 29°41' W 091°13'2 2.4
2014-Dec-15 19:33N 29°41' W 091°10'3 3.4
2014-Dec-15 18:33N 29°39' W 091°07'1 1.4
2014-Dec-15 17:33N 29°40' W 091°06'1 0.8
2014-Dec-15 16:33N 29°39' W 091°06'7 6.1
2014-Dec-15 15:25N 29°37' W 090°59'3 1.9
2014-Dec-15 14:07N 29°37' W 090°56'0 0.0
2014-Dec-15 13:33N 29°37' W 090°56'0 0.0
2014-Dec-15 12:29N 29°37' W 090°56'0 0.0
2014-Dec-15 11:33N 29°37' W 090°56'0 0.0
2014-Dec-15 10:33N 29°37' W 090°56'0 0.0
2014-Dec-15 09:14N 29°37' W 090°56'0 0.0
2014-Dec-15 08:26N 29°37' W 090°56'0 0.0
2014-Dec-15 07:29N 29°37' W 090°56'0 0.0
2014-Dec-15 04:33N 29°37' W 090°56'0 0.0
2014-Dec-15 03:29N 29°37' W 090°56'0 0.0
2014-Dec-15 02:25N 29°37' W 090°56'0 0.0
2014-Dec-15 01:28N 29°37' W 090°56'0 0.0
2014-Dec-15 00:32N 29°37' W 090°56'0 0.0
2014-Dec-14 23:33N 29°37' W 090°56'0 0.0
2014-Dec-14 22:33N 29°37' W 090°56'0 0.0
2014-Dec-14 21:19N 29°37' W 090°56'0 0.0
2014-Dec-14 20:30N 29°37' W 090°56'0 0.0
2014-Dec-14 19:30N 29°37' W 090°56'0 0.0
2014-Dec-14 18:33N 29°37' W 090°56'0 0.0
2014-Dec-14 17:33N 29°37' W 090°56'0 0.0
2014-Dec-14 16:31N 29°37' W 090°56'0 0.0
2014-Dec-14 15:33N 29°37' W 090°56'0 0.0
2014-Dec-14 14:33N 29°37' W 090°56'0 0.0
2014-Dec-14 13:32N 29°37' W 090°56'0 0.0
2014-Dec-14 12:33N 29°37' W 090°56'0 0.0
2014-Dec-14 11:33N 29°37' W 090°56'0 0.0
2014-Dec-14 10:33N 29°37' W 090°56'0 0.0
2014-Dec-14 09:33N 29°37' W 090°56'0 0.0
2014-Dec-14 08:33N 29°37' W 090°56'0 0.0
2014-Dec-14 07:33N 29°37' W 090°56'0 0.0
2014-Dec-14 06:33N 29°37' W 090°56'0 0.0
2014-Dec-14 05:33N 29°37' W 090°56'7 1.9
2014-Dec-14 02:04N 29°37' W 091°04'3 6.0
2014-Dec-14 01:33N 29°38' W 091°07'5 4.5
2014-Dec-14 00:33N 29°41' W 091°11'3 2.6
2014-Dec-13 23:33N 29°44' W 091°12'3 3.1
2014-Dec-13 22:26N 29°47' W 091°11'3 3.0
2014-Dec-13 21:26N 29°49' W 091°13'2 2.0
2014-Dec-13 20:33N 29°48' W 091°15'3 2.7
2014-Dec-13 19:24N 29°47' W 091°19'0 0.0
2014-Dec-13 18:33N 29°47' W 091°19'0 0.0
2014-Dec-13 17:33N 29°47' W 091°19'0 0.0
2014-Dec-13 16:28N 29°47' W 091°19'0 0.0
2014-Dec-13 15:32N 29°47' W 091°19'0 0.0
2014-Dec-13 14:33N 29°47' W 091°19'0 0.0
2014-Dec-13 13:33N 29°47' W 091°19'0 0.0
2014-Dec-13 12:33N 29°47' W 091°19'0 0.0
2014-Dec-13 11:33N 29°47' W 091°19'0 0.0
2014-Dec-13 10:33N 29°47' W 091°19'0 0.0
2014-Dec-13 09:33N 29°47' W 091°19'0 0.0
2014-Dec-13 08:33N 29°47' W 091°19'0 0.0
2014-Dec-13 07:33N 29°47' W 091°19'0 0.0
2014-Dec-13 06:32N 29°47' W 091°19'0 0.0
2014-Dec-13 05:33N 29°47' W 091°19'0 0.0
2014-Dec-13 04:33N 29°47' W 091°19'0 0.0
2014-Dec-13 03:33N 29°47' W 091°19'0 0.0
2014-Dec-13 02:33N 29°47' W 091°19'0 0.0
2014-Dec-13 01:33N 29°47' W 091°19'0 0.0
2014-Dec-13 00:33N 29°47' W 091°19'0 0.0
2014-Dec-12 23:33N 29°47' W 091°19'0 0.0
2014-Dec-12 22:33N 29°47' W 091°19'0 0.0
2014-Dec-12 21:33N 29°47' W 091°19'0 0.0
2014-Dec-12 20:33N 29°47' W 091°19'0 0.0
2014-Dec-12 19:33N 29°47' W 091°19'0 0.0
2014-Dec-12 18:32N 29°47' W 091°19'0 0.0
2014-Dec-12 17:33N 29°47' W 091°19'0 0.0
2014-Dec-12 16:31N 29°47' W 091°19'0 0.0
2014-Dec-12 15:22N 29°47' W 091°19'0 0.0
2014-Dec-12 14:32N 29°47' W 091°19'0 0.0
2014-Dec-12 13:33N 29°47' W 091°19'0 0.0
2014-Dec-12 12:31N 29°47' W 091°19'0 0.0
2014-Dec-12 11:31N 29°47' W 091°19'0 0.1
2014-Dec-12 08:33N 29°47' W 091°19'3 2.8
2014-Dec-12 07:33N 29°48' W 091°16'2 2.0
2014-Dec-12 06:33N 29°49' W 091°13'3 3.2
2014-Dec-12 05:33N 29°46' W 091°11'3 3.0
2014-Dec-12 04:33N 29°45' W 091°14'0 0.1
2014-Dec-12 03:33N 29°45' W 091°14'2 1.9
2014-Dec-12 02:33N 29°43' W 091°13'3 3.4
2014-Dec-12 01:33N 29°41' W 091°10'0 0.1
2014-Dec-12 00:33N 29°41' W 091°10'0 0.0
2014-Dec-11 23:33N 29°41' W 091°10'0 0.0
2014-Dec-11 22:33N 29°41' W 091°10'0 0.0
2014-Dec-11 21:33N 29°41' W 091°10'0 0.0
2014-Dec-11 20:33N 29°41' W 091°10'0 0.0
2014-Dec-11 19:33N 29°41' W 091°10'0 0.0
2014-Dec-11 18:33N 29°41' W 091°10'  

Dump ship's entire track history